Time;durP1;ratioP1;P1;durP2;ratioP2;P2;SDS_P1;SDS_P2;PMS_P1;PMS_P2;Temp;Humidity;BMP_temperature;BMP_pressure;BME280_temperature;BME280_humidity;BME280_pressure;Samples;Min_cycle;Max_cycle;Signal;HPM_P1;HPM_P2
2022/03/08 00:00:32;;;;;;;;;;;1.30;60.30;;;0.01;57.21;101254.81;5068977;28;20407;-78
2022/03/08 00:02:59;;;;;;;;;;;0.60;60.20;;;-0.04;57.67;101254.66;5069099;28;19928;-77
2022/03/08 00:05:27;;;;;;;;;;;0.60;60.50;;;-0.12;57.25;101262.16;5068431;28;19928;-77
2022/03/08 00:07:55;;;;;;;;;;;0.40;59.90;;;-0.13;57.56;101257.81;5053027;28;19971;-77
2022/03/08 00:10:34;;;;;;;;;;;2.00;60.70;;;-0.04;57.57;101271.09;5054598;28;19928;-77
2022/03/08 00:13:01;;;;;;;;;;;1.50;60.60;;;-0.07;57.06;101268.41;5069096;28;19924;-77
2022/03/08 00:15:28;;;;;;;;;;;0.50;59.50;;;-0.05;56.86;101271.91;5051185;28;19955;-77
2022/03/08 00:17:56;;;;;;;;;;;0.60;59.70;;;-0.08;57.48;101270.91;5069787;28;19928;-77
2022/03/08 00:20:24;;;;;;;;;;;0.60;59.90;;;-0.10;57.92;101270.84;5048793;28;19960;-77
2022/03/08 00:22:51;;;;;;;;;;;0.50;60.70;;;-0.17;58.62;101263.72;5047240;28;19956;-77
2022/03/08 00:25:18;;;;;;;;;;;0.40;61.20;;;-0.13;57.65;101257.81;5030780;28;19960;-77
2022/03/08 00:27:48;;;;;;;;;;;0.50;60.40;;;-0.10;57.57;101262.22;5031508;28;20460;-78
2022/03/08 00:30:49;;;;;;;;;;;0.70;60.10;;;-0.03;57.70;101267.66;5032896;28;20323;-78
2022/03/08 00:33:17;;;;;;;;;;;0.50;60.20;;;-0.07;56.50;101255.47;5047889;28;19924;-78
2022/03/08 00:35:44;;;;;;;;;;;1.10;60.30;;;0.05;56.57;101256.69;5049927;28;19974;-78
2022/03/08 00:38:11;;;;;;;;;;;0.40;60.00;;;-0.08;56.67;101251.13;5050150;28;19948;-78
2022/03/08 00:40:39;;;;;;;;;;;0.50;60.00;;;-0.11;57.11;101252.72;5032843;28;19929;-78
2022/03/08 00:43:06;;;;;;;;;;;0.70;60.00;;;-0.12;57.15;101257.00;5048438;28;20374;-78
2022/03/08 00:45:34;;;;;;;;;;;0.50;60.10;;;-0.17;58.14;101248.22;5032766;28;19983;-77
2022/03/08 00:48:01;;;;;;;;;;;0.70;61.20;;;-0.15;57.75;101251.72;5032588;28;20011;-78
2022/03/08 00:50:29;;;;;;;;;;;3.00;61.90;;;-0.16;57.30;101249.97;5032634;28;19940;-78
2022/03/08 00:52:57;;;;;;;;;;;0.50;60.80;;;-0.17;58.65;101246.47;5047975;28;19924;-78
2022/03/08 00:55:27;;;;;;;;;;;0.50;61.60;;;-0.34;58.60;101245.91;5032111;28;19936;-77
2022/03/08 00:57:55;;;;;;;;;;;0.40;61.40;;;-0.30;58.61;101247.78;5049547;28;20349;-78
2022/03/08 01:00:24;;;;;;;;;;;0.40;61.30;;;-0.27;58.06;101243.53;5049058;28;20378;-78
2022/03/08 01:02:51;;;;;;;;;;;2.90;62.40;;;-0.20;56.21;101245.53;5031934;28;19925;-77
2022/03/08 01:05:19;;;;;;;;;;;0.40;60.10;;;-0.20;56.90;101242.94;5055104;28;19935;-78
2022/03/08 01:07:46;;;;;;;;;;;1.10;61.30;;;-0.19;57.00;101236.94;5056066;28;19924;-78
2022/03/08 01:10:17;;;;;;;;;;;0.30;61.00;;;-0.15;56.59;101238.78;5040310;28;19963;-78
2022/03/08 01:12:48;;;;;;;;;;;0.30;60.60;;;-0.17;58.05;101238.72;5071197;28;19929;-78
2022/03/08 01:15:16;;;;;;;;;;;0.30;61.40;;;-0.10;57.85;101229.47;5068885;28;20332;-78
2022/03/08 01:17:44;;;;;;;;;;;0.40;62.00;;;-0.04;58.28;101232.28;5058458;28;19982;-78
2022/03/08 01:20:14;;;;;;;;;;;1.50;62.90;;;-0.03;56.32;101228.84;5077264;28;19924;-78
2022/03/08 01:22:41;;;;;;;;;;;0.60;61.60;;;0.04;57.99;101226.47;5056476;28;19935;-78
2022/03/08 01:25:10;;;;;;;;;;;0.40;62.60;;;0.03;57.45;101224.69;5073987;28;19934;-77
2022/03/08 01:27:38;;;;;;;;;;;0.70;62.00;;;0.04;55.50;101222.19;5073219;28;19928;-78
2022/03/08 01:30:06;;;;;;;;;;;0.60;60.20;;;0.03;56.26;101215.25;5071851;28;19929;-77
2022/03/08 01:32:33;;;;;;;;;;;0.60;59.80;;;0.02;55.74;101212.59;5066387;28;19929;-78
2022/03/08 01:35:00;;;;;;;;;;;0.50;59.90;;;0.02;55.31;101208.31;5033354;28;19929;-77
2022/03/08 01:37:27;;;;;;;;;;;0.50;59.50;;;0.01;55.97;101218.59;5050637;28;19947;-78
2022/03/08 01:39:54;;;;;;;;;;;0.70;60.00;;;0.01;55.77;101208.25;5067724;28;19928;-77
2022/03/08 01:42:23;;;;;;;;;;;0.70;60.00;;;0.01;56.00;101208.25;5053471;28;19925;-77
2022/03/08 01:44:52;;;;;;;;;;;1.60;60.80;;;-0.02;55.47;101207.31;5069742;28;19928;-78
2022/03/08 01:47:21;;;;;;;;;;;1.30;60.70;;;-0.01;55.48;101206.50;5054776;28;20377;-77
2022/03/08 01:49:50;;;;;;;;;;;0.60;59.60;;;-0.04;56.98;101205.50;5054059;28;19925;-77
2022/03/08 01:52:19;;;;;;;;;;;0.60;60.50;;;-0.02;56.06;101206.44;5053362;28;19925;-77
2022/03/08 01:54:46;;;;;;;;;;;0.60;60.50;;;0.02;55.50;101207.41;5070280;28;19939;-77
2022/03/08 01:57:14;;;;;;;;;;;0.50;59.80;;;-0.06;55.88;101204.56;5053561;28;20550;-77
2022/03/08 01:59:41;;;;;;;;;;;0.70;60.20;;;-0.07;55.05;101195.94;5070262;28;19929;-77
2022/03/08 02:02:09;;;;;;;;;;;0.60;59.80;;;-0.08;56.14;101198.47;5053481;28;19933;-77
2022/03/08 02:04:37;;;;;;;;;;;1.90;60.90;;;-0.07;55.86;101195.06;5069148;28;19970;-77
2022/03/08 02:07:08;;;;;;;;;;;0.50;60.20;;;-0.15;56.37;101197.41;5053135;28;19940;-77
2022/03/08 02:09:35;;;;;;;;;;;2.60;61.20;;;-0.26;56.92;101199.63;5070385;28;19932;-77
2022/03/08 02:12:02;;;;;;;;;;;2.30;62.00;;;-0.32;57.51;101189.94;5053309;28;19931;-77
2022/03/08 02:14:29;;;;;;;;;;;0.50;61.00;;;-0.54;59.34;101178.00;5075629;28;19928;-78
2022/03/08 02:16:56;;;;;;;;;;;0.40;62.30;;;-0.53;58.21;101184.06;5057414;28;19924;-78
2022/03/08 02:19:26;;;;;;;;;;;0.20;61.80;;;-0.59;58.16;101184.72;5072378;28;19963;-78
2022/03/08 02:21:54;;;;;;;;;;;0.30;61.40;;;-0.70;59.71;101180.88;5056513;28;19925;-79
2022/03/08 02:24:21;;;;;;;;;;;0.20;63.40;;;-0.72;59.72;101179.09;5074517;28;19928;-78
2022/03/08 02:26:49;;;;;;;;;;;0.20;63.70;;;-0.82;60.32;101168.41;5074939;28;19935;-79
2022/03/08 02:29:16;;;;;;;;;;;0.10;64.10;;;-0.89;60.68;101177.63;5075144;28;19951;-77
2022/03/08 02:31:43;;;;;;;;;;;0.00;64.30;;;-1.13;61.87;101163.00;5058482;28;19993;-78
2022/03/08 02:34:10;;;;;;;;;;;0.20;64.80;;;-1.34;62.67;101163.06;5052102;28;20003;-77
2022/03/08 02:36:37;;;;;;;;;;;2.00;66.50;;;-1.49;64.21;101172.00;5070387;28;20297;-77
2022/03/08 02:39:04;;;;;;;;;;;-0.20;66.40;;;-1.49;66.21;101182.31;5052870;28;20444;-77
2022/03/08 02:41:34;;;;;;;;;;;1.00;68.60;;;-1.50;67.22;101170.22;5069548;28;19924;-77
2022/03/08 02:44:01;;;;;;;;;;;2.20;69.70;;;-1.41;65.35;101164.53;5069438;28;19924;-77
2022/03/08 02:46:31;;;;;;;;;;;-0.60;68.10;;;-1.52;67.17;101160.69;5069394;28;19935;-77
2022/03/08 02:48:58;;;;;;;;;;;-0.80;68.00;;;-1.59;70.02;101162.16;5069311;28;20148;-77
2022/03/08 02:51:40;;;;;;;;;;;0.40;71.40;;;-1.53;72.32;101161.50;5054392;28;19928;-77
2022/03/08 02:54:06;;;;;;;;;;;-0.60;71.90;;;-1.57;70.49;101155.34;5069234;28;19928;-77
2022/03/08 02:56:33;;;;;;;;;;;-0.60;71.70;;;-1.66;69.98;101152.41;5052505;28;19931;-77
2022/03/08 02:59:00;;;;;;;;;;;-0.90;70.70;;;-1.62;72.25;101155.16;5070131;28;19928;-78
2022/03/08 03:01:27;;;;;;;;;;;-0.50;72.70;;;-1.60;71.74;101145.78;5052604;28;19928;-77
2022/03/08 03:03:54;;;;;;;;;;;-0.70;72.50;;;-1.53;72.28;101144.31;5051404;28;19929;-77
2022/03/08 03:06:21;;;;;;;;;;;-0.70;73.50;;;-1.53;71.67;101148.59;5052256;28;19928;-77
2022/03/08 03:08:48;;;;;;;;;;;-0.80;73.40;;;-1.45;70.71;101142.91;5068628;28;19925;-77
2022/03/08 03:11:15;;;;;;;;;;;-0.60;72.70;;;-1.48;72.02;101142.81;5068617;28;19928;-77
2022/03/08 03:13:42;;;;;;;;;;;-0.60;74.00;;;-1.41;72.43;101143.88;5071029;28;20404;-78
2022/03/08 03:16:09;;;;;;;;;;;-0.60;74.10;;;-1.34;72.06;101137.25;5053949;28;19928;-77
2022/03/08 03:18:36;;;;;;;;;;;-0.50;74.10;;;-1.32;71.15;101133.91;5072181;28;19928;-78
2022/03/08 03:21:03;;;;;;;;;;;-0.60;73.90;;;-1.25;69.56;101131.53;5054122;28;19928;-78
2022/03/08 03:23:30;;;;;;;;;;;-0.60;72.90;;;-1.19;68.94;101131.78;5069106;28;19928;-76
2022/03/08 03:25:57;;;;;;;;;;;0.30;73.00;;;-1.17;67.37;101124.97;5069820;28;19925;-79
2022/03/08 03:28:30;;;;;;;;;;;-0.30;71.40;;;-1.16;66.53;101117.28;5069281;28;19943;-77
2022/03/08 03:30:57;;;;;;;;;;;-0.60;71.50;;;-1.08;67.75;101129.59;5053747;28;19925;-78
2022/03/08 03:33:24;;;;;;;;;;;0.60;72.00;;;-1.09;66.95;101120.06;5070659;28;19928;-78
2022/03/08 03:35:51;;;;;;;;;;;2.70;73.20;;;-1.05;66.08;101125.41;5053234;28;19928;-79
2022/03/08 03:38:17;;;;;;;;;;;2.30;72.50;;;-1.08;67.93;101127.91;5054459;28;19924;-78
2022/03/08 03:40:44;;;;;;;;;;;-0.40;71.60;;;-1.07;67.90;101133.91;5070866;28;19936;-77
2022/03/08 03:43:11;;;;;;;;;;;-0.30;72.10;;;-1.06;67.27;101125.34;5070262;28;19924;-79
2022/03/08 03:45:38;;;;;;;;;;;-0.40;71.20;;;-1.10;69.25;101136.41;5074430;28;19931;-78
2022/03/08 03:48:06;;;;;;;;;;;-0.30;72.50;;;-1.12;66.75;101131.16;5039124;28;19928;-79
2022/03/08 03:50:33;;;;;;;;;;;-0.20;72.00;;;-1.13;66.13;101137.16;5071536;28;19924;-77
2022/03/08 03:53:00;;;;;;;;;;;-0.40;70.60;;;-1.21;67.18;101120.53;5069226;28;19928;-78
2022/03/08 03:55:27;;;;;;;;;;;2.80;73.50;;;-1.16;68.47;101134.47;5068999;28;20385;-78
2022/03/08 03:57:54;;;;;;;;;;;0.30;72.70;;;-1.27;68.72;101128.03;5038038;28;20419;-78
2022/03/08 04:00:21;;;;;;;;;;;-0.60;72.40;;;-1.30;70.27;101123.66;5070060;28;20442;-78
2022/03/08 04:02:47;;;;;;;;;;;-0.40;73.20;;;-1.41;70.06;101124.94;5067664;28;20343;-77
2022/03/08 04:05:15;;;;;;;;;;;0.30;74.50;;;-1.40;68.36;101130.19;5068408;28;19928;-77
2022/03/08 04:07:42;;;;;;;;;;;-0.40;73.00;;;-1.39;70.65;101125.88;5071415;28;19924;-78
2022/03/08 04:10:10;;;;;;;;;;;-0.50;73.90;;;-1.30;68.98;101118.50;5053986;28;19959;-78
2022/03/08 04:12:37;;;;;;;;;;;-0.50;73.90;;;-1.29;68.29;101120.25;5065934;28;19932;-78
2022/03/08 04:15:04;;;;;;;;;;;-0.50;73.60;;;-1.26;69.82;101125.50;5066447;28;19928;-78
2022/03/08 04:17:31;;;;;;;;;;;-0.60;74.10;;;-1.22;71.31;101117.03;5069927;28;19935;-78
2022/03/08 04:19:59;;;;;;;;;;;-0.40;74.80;;;-1.17;69.57;101109.47;5037116;28;19947;-79
2022/03/08 04:22:25;;;;;;;;;;;2.50;75.40;;;-1.17;68.76;101112.94;5052987;28;20027;-77
2022/03/08 04:24:57;;;;;;;;;;;-0.30;73.00;;;-1.16;66.78;101106.06;5067774;28;20408;-77
2022/03/08 04:27:23;;;;;;;;;;;-0.60;72.40;;;-1.17;67.83;101102.63;5067843;28;19924;-77
2022/03/08 04:29:50;;;;;;;;;;;0.90;73.20;;;-1.17;66.66;101102.63;5051055;28;19935;-79
2022/03/08 04:32:18;;;;;;;;;;;-0.40;72.60;;;-1.25;69.60;101104.03;5067259;28;19924;-77
2022/03/08 04:34:45;;;;;;;;;;;-0.40;73.20;;;-1.27;68.55;101104.78;5050588;28;19947;-77
2022/03/08 04:37:12;;;;;;;;;;;-0.80;72.80;;;-1.41;69.18;101100.00;5050665;28;20411;-77
2022/03/08 04:39:39;;;;;;;;;;;2.80;75.10;;;-1.51;74.41;101101.34;5067522;28;20047;-77
2022/03/08 04:42:06;;;;;;;;;;;-0.40;76.00;;;-1.50;74.30;101108.28;5067687;28;19932;-77
2022/03/08 04:44:32;;;;;;;;;;;-0.70;75.30;;;-1.52;72.74;101116.81;5067341;28;19924;-78
2022/03/08 04:46:59;;;;;;;;;;;-0.50;75.90;;;-1.53;72.74;101118.50;5067323;28;19939;-77
2022/03/08 04:49:26;;;;;;;;;;;-0.70;75.40;;;-1.54;71.06;101118.47;5067160;28;19928;-77
2022/03/08 04:51:53;;;;;;;;;;;1.10;76.00;;;-1.54;74.81;101116.75;5067575;28;20278;-77
2022/03/08 04:54:20;;;;;;;;;;;0.00;77.10;;;-1.52;73.38;101122.84;5065999;28;19924;-77
2022/03/08 04:56:47;;;;;;;;;;;1.80;77.70;;;-1.45;72.57;101114.50;5067290;28;19936;-77
2022/03/08 04:59:14;;;;;;;;;;;-0.70;75.90;;;-1.50;71.56;101120.31;5067240;28;20031;-78
2022/03/08 05:01:41;;;;;;;;;;;-0.30;76.10;;;-1.55;71.52;101130.47;5059225;28;19932;-78
2022/03/08 05:04:08;;;;;;;;;;;-0.80;75.80;;;-1.67;73.74;101125.72;5057889;28;19929;-78
2022/03/08 05:06:35;;;;;;;;;;;-0.80;76.60;;;-1.74;72.50;101136.63;5053443;28;20389;-79
2022/03/08 05:09:03;;;;;;;;;;;-1.20;76.10;;;-1.78;75.57;101138.22;5075130;28;19943;-79
2022/03/08 05:11:30;;;;;;;;;;;-0.80;77.70;;;-1.98;77.04;101131.38;5071934;28;19929;-78
2022/03/08 05:13:58;;;;;;;;;;;-1.00;78.10;;;-1.96;77.63;101134.91;5069002;28;20381;-77
2022/03/08 05:16:25;;;;;;;;;;;-1.00;78.80;;;-1.91;74.11;101130.81;5088546;28;20384;-77
2022/03/08 05:18:52;;;;;;;;;;;-0.80;77.70;;;-2.11;72.62;101132.59;5079805;28;20620;-76
2022/03/08 05:21:22;;;;;;;;;;;-1.10;77.00;;;-2.25;75.34;101134.63;5088840;28;19929;-76
2022/03/08 05:23:49;;;;;;;;;;;-1.40;76.90;;;-2.52;77.00;101132.66;5071386;28;19947;-77
2022/03/08 05:26:16;;;;;;;;;;;-1.30;79.40;;;-2.38;79.72;101134.13;5085192;28;19925;-76
2022/03/08 05:28:43;;;;;;;;;;;0.60;81.20;;;-2.29;83.64;101137.06;5060243;28;19929;-77
2022/03/08 05:31:10;;;;;;;;;;;-1.30;82.50;;;-2.50;80.69;101139.63;5080691;28;19935;-74
2022/03/08 05:33:37;;;;;;;;;;;-1.40;81.40;;;-2.22;78.12;101140.78;5059588;28;20007;-78
2022/03/08 05:36:05;;;;;;;;;;;-1.50;81.00;;;-2.30;76.65;101140.47;5073907;28;19970;-76
2022/03/08 05:38:31;;;;;;;;;;;-1.70;80.70;;;-2.43;77.00;101139.09;5074805;28;19929;-77
2022/03/08 05:40:59;;;;;;;;;;;-0.50;82.00;;;-2.37;76.89;101141.03;5057924;28;19936;-76
2022/03/08 05:43:27;;;;;;;;;;;-1.50;81.80;;;-2.25;83.18;101142.38;5076765;28;20325;-78
2022/03/08 05:45:54;;;;;;;;;;;0.00;84.70;;;-2.14;79.01;101141.09;5064731;28;19928;-75
2022/03/08 05:48:21;;;;;;;;;;;-1.50;83.50;;;-2.09;81.60;101136.13;5072191;28;20443;-75
2022/03/08 05:50:49;;;;;;;;;;;-1.60;85.50;;;-2.16;81.94;101142.72;5050762;28;20295;-74
2022/03/08 05:53:16;;;;;;;;;;;-1.20;85.40;;;-2.28;80.56;101137.94;5047564;28;19955;-74
2022/03/08 05:55:43;;;;;;;;;;;0.10;85.30;;;-2.37;82.01;101135.88;5050259;28;20455;-75
2022/03/08 05:58:10;;;;;;;;;;;-1.50;84.80;;;-2.47;80.48;101126.00;5051679;28;19968;-74
2022/03/08 06:00:37;;;;;;;;;;;-1.30;84.60;;;-2.37;80.11;101129.81;5050569;28;19932;-75
2022/03/08 06:03:04;;;;;;;;;;;-1.40;84.30;;;-2.26;82.65;101127.69;5049895;28;19928;-74
2022/03/08 06:05:31;;;;;;;;;;;-1.50;85.80;;;-2.25;80.43;101137.22;5051596;28;19955;-75
2022/03/08 06:07:58;;;;;;;;;;;0.10;86.40;;;-2.26;81.85;101136.31;5053447;28;19932;-77
2022/03/08 06:10:25;;;;;;;;;;;-1.40;85.60;;;-2.52;79.83;101150.72;5052703;28;19928;-77
2022/03/08 06:12:52;;;;;;;;;;;-1.40;84.10;;;-2.57;82.67;101147.94;5052490;28;19931;-77
2022/03/08 06:15:19;;;;;;;;;;;0.80;87.30;;;-2.54;84.45;101152.34;5057967;28;19925;-77
2022/03/08 06:17:46;;;;;;;;;;;-1.50;87.10;;;-2.62;82.74;101163.19;5055630;28;19938;-76
2022/03/08 06:20:13;;;;;;;;;;;-1.80;86.10;;;-2.67;84.85;101168.94;5055490;28;20349;-76
2022/03/08 06:22:40;;;;;;;;;;;-1.40;86.80;;;-2.66;86.52;101166.47;5071989;28;19932;-75
2022/03/08 06:25:07;;;;;;;;;;;-1.60;87.90;;;-2.73;87.14;101169.59;5054983;28;20329;-77
2022/03/08 06:27:34;;;;;;;;;;;-1.50;87.80;;;-2.58;84.60;101174.50;5070491;28;19929;-76
2022/03/08 06:30:02;;;;;;;;;;;-1.80;87.20;;;-2.50;86.07;101169.69;5070974;28;19931;-76
2022/03/08 06:32:29;;;;;;;;;;;0.10;89.20;;;-2.42;84.09;101161.47;5054527;28;19943;-76
2022/03/08 06:34:56;;;;;;;;;;;-1.70;87.20;;;-2.25;84.24;101163.84;5071519;28;19924;-76
2022/03/08 06:37:24;;;;;;;;;;;-1.30;87.50;;;-1.92;84.01;101163.47;5054698;28;19932;-75
2022/03/08 06:39:50;;;;;;;;;;;-1.60;88.30;;;-1.93;82.70;101166.84;5070027;28;19935;-75
2022/03/08 06:42:18;;;;;;;;;;;-1.10;88.20;;;-1.83;79.29;101177.56;5070419;28;19924;-74
2022/03/08 06:44:45;;;;;;;;;;;0.50;86.60;;;-1.70;79.97;101179.81;5069204;28;20317;-74
2022/03/08 06:47:12;;;;;;;;;;;-0.40;86.70;;;-1.60;78.18;101184.47;5069065;28;19931;-75
2022/03/08 06:49:41;;;;;;;;;;;-1.00;84.70;;;-1.54;74.81;101178.69;5069534;28;20055;-75
2022/03/08 06:52:10;;;;;;;;;;;-0.90;84.10;;;-1.43;75.23;101187.72;5069196;28;19924;-74
2022/03/08 06:54:37;;;;;;;;;;;0.10;83.50;;;-1.39;72.01;101181.00;5070478;28;19928;-75
2022/03/08 06:57:04;;;;;;;;;;;-0.70;81.50;;;-1.28;72.02;101186.56;5068852;28;19928;-75
2022/03/08 06:59:31;;;;;;;;;;;-0.40;81.40;;;-1.24;72.63;101180.69;5069253;28;19925;-76
2022/03/08 07:01:58;;;;;;;;;;;-0.40;81.80;;;-1.15;70.37;101188.78;5052268;28;20424;-75
2022/03/08 07:04:25;;;;;;;;;;;0.80;80.50;;;-1.08;70.10;101187.31;5068824;28;20039;-75
2022/03/08 07:06:54;;;;;;;;;;;-0.40;80.00;;;-1.02;68.90;101184.03;5069163;28;20036;-75
2022/03/08 07:09:22;;;;;;;;;;;-0.30;79.20;;;-0.92;69.56;101191.31;5068695;28;19931;-74
2022/03/08 07:11:49;;;;;;;;;;;-0.20;79.20;;;-0.82;69.97;101178.72;5069070;28;19931;-75
2022/03/08 07:14:19;;;;;;;;;;;-0.10;80.50;;;-0.79;67.88;101181.44;5068502;28;19928;-76
2022/03/08 07:16:47;;;;;;;;;;;-0.30;77.30;;;-0.71;68.58;101179.97;5086601;28;19950;-76
2022/03/08 07:19:14;;;;;;;;;;;1.10;79.90;;;-0.67;67.85;101187.03;5068978;28;19932;-77
2022/03/08 07:21:42;;;;;;;;;;;2.40;80.20;;;-0.59;67.00;101182.13;5069209;28;19925;-77
2022/03/08 07:24:09;;;;;;;;;;;1.00;79.00;;;-0.54;67.49;101175.41;5068854;28;20031;-77
2022/03/08 07:26:36;;;;;;;;;;;-1.70;77.10;;;-0.47;66.40;101179.97;5070285;28;19978;-77
2022/03/08 07:29:03;;;;;;;;;;;0.20;77.90;;;-0.43;66.18;101179.25;5052027;28;20031;-76
2022/03/08 07:31:30;;;;;;;;;;;0.10;77.40;;;-0.32;66.99;101183.88;5069647;28;20480;-77
2022/03/08 07:33:58;;;;;;;;;;;0.20;78.20;;;-0.32;65.11;101174.44;5077750;28;19925;-77
2022/03/08 07:36:25;;;;;;;;;;;0.40;76.40;;;-0.23;64.01;101178.16;5070448;28;20752;-76
2022/03/08 07:38:52;;;;;;;;;;;0.40;76.00;;;-0.15;64.31;101171.53;5069400;28;20286;-76
2022/03/08 07:41:19;;;;;;;;;;;1.80;77.20;;;-0.07;64.41;101176.94;5071571;28;19991;-76
2022/03/08 07:43:49;;;;;;;;;;;0.20;75.90;;;-0.01;63.58;101182.31;5053385;28;19928;-76
2022/03/08 07:46:16;;;;;;;;;;;1.50;75.50;;;0.07;63.00;101179.97;5062817;28;20289;-78
2022/03/08 07:48:44;;;;;;;;;;;1.00;76.90;;;0.18;63.38;101185.50;5043741;28;19935;-77
2022/03/08 07:51:26;;;;;;;;;;;-1.00;75.90;;;0.30;62.98;101185.88;5078241;28;19935;-76
2022/03/08 07:53:53;;;;;;;;;;;1.80;76.70;;;0.38;61.74;101193.88;5058641;28;19954;-78
2022/03/08 07:56:20;;;;;;;;;;;-1.10;73.90;;;0.44;61.43;101188.03;5069004;28;19976;-77
2022/03/08 07:58:47;;;;;;;;;;;2.60;75.50;;;0.54;61.05;101196.09;5071439;28;19924;-77
2022/03/08 08:01:14;;;;;;;;;;;1.10;74.50;;;0.64;61.22;101183.44;5071838;28;19928;-78
2022/03/08 08:03:41;;;;;;;;;;;3.00;75.50;;;0.73;60.12;101182.84;5052801;28;19924;-79
2022/03/08 08:06:08;;;;;;;;;;;1.10;74.00;;;0.82;60.18;101188.31;5062742;28;19968;-79
2022/03/08 08:08:35;;;;;;;;;;;1.40;73.50;;;0.91;59.12;101192.88;5038965;28;19928;-78
2022/03/08 08:11:02;;;;;;;;;;;2.30;73.50;;;0.97;58.40;101191.34;5050648;28;19931;-78
2022/03/08 08:13:30;;;;;;;;;;;1.10;71.80;;;1.11;58.73;101183.09;5071180;28;19932;-78
2022/03/08 08:15:57;;;;;;;;;;;3.20;73.70;;;1.19;57.73;101189.34;5053688;28;19959;-77
2022/03/08 08:18:24;;;;;;;;;;;1.50;72.10;;;1.28;57.95;101183.53;5070346;28;19935;-77
2022/03/08 08:20:51;;;;;;;;;;;0.60;71.20;;;1.36;56.95;101179.44;5043899;28;19956;-79
2022/03/08 08:23:18;;;;;;;;;;;1.60;71.00;;;1.49;57.14;101187.56;5053575;28;20007;-77
2022/03/08 08:25:45;;;;;;;;;;;3.60;72.30;;;1.59;56.12;101183.50;5052619;28;20503;-77
2022/03/08 08:28:12;;;;;;;;;;;0.30;69.70;;;1.65;56.31;101179.34;5068958;28;19931;-78
2022/03/08 08:30:39;;;;;;;;;;;2.60;70.90;;;1.74;55.71;101173.50;5051702;28;20370;-76
2022/03/08 08:33:06;;;;;;;;;;;3.20;70.40;;;1.84;55.31;101165.09;5051380;28;20023;-77
2022/03/08 08:35:33;;;;;;;;;;;4.40;70.70;;;1.92;54.87;101162.69;5052029;28;19925;-76
2022/03/08 08:38:00;;;;;;;;;;;2.40;69.40;;;2.06;54.62;101159.53;5051158;28;19935;-78
2022/03/08 08:40:28;;;;;;;;;;;3.30;69.40;;;2.19;54.40;101173.72;5067587;28;20436;-76
2022/03/08 08:42:55;;;;;;;;;;;3.30;69.00;;;2.31;53.92;101175.72;5067610;28;19928;-77
2022/03/08 08:45:22;;;;;;;;;;;2.50;68.10;;;2.36;53.45;101162.00;5068137;28;19931;-76
2022/03/08 08:47:49;;;;;;;;;;;2.70;67.80;;;2.59;53.52;101160.75;5034722;28;20693;-76
2022/03/08 08:50:16;;;;;;;;;;;2.90;67.60;;;2.73;52.71;101154.09;5068606;28;19963;-75
2022/03/08 08:52:48;;;;;;;;;;;3.00;67.00;;;2.87;52.43;101158.72;5072532;28;19924;-75
2022/03/08 08:55:16;;;;;;;;;;;5.20;67.80;;;2.97;52.68;101155.47;5073027;28;19930;-76
2022/03/08 08:57:43;;;;;;;;;;;3.30;66.80;;;3.09;51.51;101153.09;5071321;28;19948;-78
2022/03/08 09:00:10;;;;;;;;;;;3.30;65.90;;;3.22;51.32;101154.22;5071618;28;20387;-75
2022/03/08 09:02:40;;;;;;;;;;;3.60;65.60;;;3.34;50.84;101150.94;5072150;28;19930;-76
2022/03/08 09:05:09;;;;;;;;;;;3.90;64.70;;;3.41;50.47;101154.53;5072487;28;19924;-76
2022/03/08 09:07:36;;;;;;;;;;;3.80;64.00;;;3.52;50.38;101159.97;5071431;28;20336;-76
2022/03/08 09:10:07;;;;;;;;;;;2.60;63.20;;;3.60;50.35;101160.09;5071081;28;19931;-76
2022/03/08 09:12:34;;;;;;;;;;;3.80;63.50;;;3.63;50.07;101163.59;5051643;28;19929;-76
2022/03/08 09:15:02;;;;;;;;;;;6.20;64.60;;;3.71;50.09;101163.75;5051888;28;19928;-76
2022/03/08 09:17:29;;;;;;;;;;;4.50;63.40;;;3.81;49.30;101164.75;5052882;28;19931;-75
2022/03/08 09:19:56;;;;;;;;;;;4.10;62.10;;;3.88;49.30;101161.44;5068473;28;19924;-76
2022/03/08 09:22:23;;;;;;;;;;;4.90;62.40;;;4.01;48.57;101156.44;5070054;28;20342;-76
2022/03/08 09:24:50;;;;;;;;;;;4.30;61.50;;;4.05;48.64;101156.47;5084661;28;19951;-75
2022/03/08 09:27:17;;;;;;;;;;;6.30;62.30;;;4.06;48.12;101154.75;5070589;28;19921;-74
2022/03/08 09:29:46;;;;;;;;;;;4.20;60.40;;;4.21;48.09;101141.06;5071265;28;20445;-76
2022/03/08 09:32:14;;;;;;;;;;;4.40;60.30;;;4.26;47.87;101132.47;5052040;28;19929;-75
2022/03/08 09:34:41;;;;;;;;;;;4.40;59.90;;;4.39;47.46;101130.06;5052175;28;20221;-76
2022/03/08 09:37:14;;;;;;;;;;;4.60;59.70;;;4.43;47.21;101124.03;5062832;28;19925;-76
2022/03/08 09:39:41;;;;;;;;;;;5.20;59.30;;;4.58;47.30;101131.19;5071671;28;19928;-76
2022/03/08 09:42:09;;;;;;;;;;;5.20;59.40;;;4.63;46.36;101133.84;5070460;28;20282;-77
2022/03/08 09:44:36;;;;;;;;;;;4.90;58.40;;;4.66;45.76;101121.72;5070607;28;19940;-76
2022/03/08 09:47:05;;;;;;;;;;;5.80;58.10;;;4.81;45.60;101126.25;5070001;28;19967;-76
2022/03/08 09:49:32;;;;;;;;;;;5.00;57.60;;;4.89;45.72;101122.84;5054145;28;19964;-76
2022/03/08 09:51:59;;;;;;;;;;;6.50;58.00;;;5.00;44.88;101121.25;5070507;28;20019;-75
2022/03/08 09:54:26;;;;;;;;;;;5.60;57.00;;;5.07;45.04;101123.09;5053551;28;20023;-76
2022/03/08 09:56:53;;;;;;;;;;;6.80;57.50;;;5.17;45.02;101128.38;5070077;28;19928;-76
2022/03/08 09:59:20;;;;;;;;;;;5.30;56.50;;;5.23;44.66;101118.03;5069863;28;19929;-76
2022/03/08 10:01:47;;;;;;;;;;;6.00;56.10;;;5.34;44.01;101121.59;5070017;28;20354;-75
2022/03/08 10:04:19;;;;;;;;;;;5.50;55.30;;;5.53;43.14;101114.81;5070856;28;19978;-76
2022/03/08 10:07:08;;;;;;;;;;;7.10;55.10;;;5.64;43.47;101098.38;5071461;28;19935;-76
2022/03/08 10:09:38;;;;;;;;;;;5.70;54.50;;;5.65;43.44;101108.81;5053621;28;19971;-76
2022/03/08 10:12:17;;;;;;;;;;;5.90;54.30;;;5.72;43.25;101101.91;5035630;28;20027;-74
2022/03/08 10:14:44;;;;;;;;;;;5.90;54.20;;;5.86;43.40;101103.75;5066229;28;19928;-74
2022/03/08 10:17:33;;;;;;;;;;;6.10;54.20;;;5.90;43.12;101103.78;5070615;28;19936;-77
2022/03/08 10:20:08;;;;;;;;;;;6.00;53.90;;;6.02;42.63;101097.81;5072944;28;19935;-74
2022/03/08 10:22:37;;;;;;;;;;;6.20;53.50;;;6.03;42.66;101090.84;5071374;28;19929;-76
2022/03/08 10:25:18;;;;;;;;;;;6.20;53.50;;;6.10;42.14;101092.63;5071601;28;20047;-77
2022/03/08 10:28:01;;;;;;;;;;;6.30;52.90;;;6.20;42.37;101083.09;5060411;28;19935;-77
2022/03/08 10:30:46;;;;;;;;;;;6.30;53.00;;;6.27;42.18;101084.00;5051888;28;19936;-77
2022/03/08 10:33:20;;;;;;;;;;;6.30;52.80;;;6.58;42.30;101081.53;5036160;28;20294;-76
2022/03/08 10:35:51;;;;;;;;;;;7.20;53.30;;;6.67;41.10;101071.97;5034664;28;19925;-77
2022/03/08 10:38:18;;;;;;;;;;;6.60;52.00;;;6.79;40.82;101079.03;5033598;28;19931;-76
2022/03/08 10:40:45;;;;;;;;;;;6.70;52.00;;;6.85;40.29;101077.28;5051033;28;19928;-76
2022/03/08 10:43:14;;;;;;;;;;;6.80;51.30;;;6.84;40.91;101072.91;5049964;28;20307;-75
2022/03/08 10:45:46;;;;;;;;;;;6.90;51.40;;;6.94;40.47;101069.44;5051132;28;19928;-76
2022/03/08 10:48:14;;;;;;;;;;;6.90;50.70;;;7.07;39.92;101072.97;5034116;28;19925;-76
2022/03/08 10:50:46;;;;;;;;;;;7.00;50.60;;;6.97;39.87;101069.47;5051454;28;19929;-76
2022/03/08 10:53:14;;;;;;;;;;;7.10;50.30;;;7.07;40.12;101068.59;5050651;28;20027;-76
2022/03/08 10:55:46;;;;;;;;;;;7.10;50.40;;;7.17;40.49;101066.00;5049809;28;19929;-76
2022/03/08 10:58:14;;;;;;;;;;;7.30;50.30;;;7.32;39.74;101059.91;5052084;28;19931;-76
2022/03/08 11:00:46;;;;;;;;;;;7.30;50.00;;;7.43;39.80;101066.03;5052182;28;19928;-76
2022/03/08 11:03:20;;;;;;;;;;;7.40;50.10;;;7.54;39.59;101066.00;5056101;28;19928;-76
2022/03/08 11:05:53;;;;;;;;;;;7.50;50.00;;;7.52;39.46;101054.66;5069164;28;19924;-76
2022/03/08 11:08:28;;;;;;;;;;;7.60;49.40;;;7.72;38.68;101051.16;5071459;28;19932;-76
2022/03/08 11:10:56;;;;;;;;;;;7.70;48.90;;;7.84;38.29;101052.91;5069184;28;19932;-76
2022/03/08 11:13:24;;;;;;;;;;;7.90;48.20;;;7.97;38.18;101057.25;5048799;28;19928;-77
2022/03/08 11:15:51;;;;;;;;;;;8.80;48.60;;;8.16;37.57;101046.72;5049780;28;19933;-76
2022/03/08 11:18:18;;;;;;;;;;;8.20;47.80;;;8.26;37.44;101048.41;5047684;28;20290;-76
2022/03/08 11:20:47;;;;;;;;;;;8.50;47.70;;;8.28;37.35;101048.41;5049813;28;19999;-76